createdAt,value
2023-01-04T00:00:09.493Z,88
2023-01-04T00:01:16.545Z,88
2023-01-04T00:02:23.244Z,88
2023-01-04T00:03:30.418Z,88
2023-01-04T00:04:37.450Z,88
2023-01-04T00:05:44.456Z,88
2023-01-04T00:06:51.560Z,88
2023-01-04T00:07:58.180Z,88
2023-01-04T00:09:05.313Z,89
2023-01-04T00:10:12.356Z,89
2023-01-04T00:11:19.502Z,89
2023-01-04T00:12:26.571Z,89
2023-01-04T00:13:34.041Z,89
2023-01-04T00:14:40.368Z,89
2023-01-04T00:15:47.484Z,89
2023-01-04T00:16:54.461Z,89
2023-01-04T00:18:01.583Z,89
2023-01-04T00:19:08.181Z,89
2023-01-04T00:20:15.360Z,89
2023-01-04T00:22:29.502Z,89
2023-01-04T00:23:36.583Z,89
2023-01-04T00:24:43.135Z,89
2023-01-04T00:26:57.406Z,89
2023-01-04T00:28:04.460Z,89
2023-01-04T00:29:11.665Z,89
2023-01-04T00:31:25.409Z,89
2023-01-04T00:32:32.461Z,89
2023-01-04T00:33:39.517Z,89
2023-01-04T00:34:46.626Z,89
2023-01-04T00:35:53.699Z,89
2023-01-04T00:37:00.465Z,89
2023-01-04T00:38:07.438Z,89
2023-01-04T00:39:14.503Z,89
2023-01-04T00:40:21.631Z,89
2023-01-04T00:41:57.069Z,89
2023-01-04T00:42:35.356Z,89
2023-01-04T00:43:42.403Z,89
2023-01-04T00:44:49.597Z,89
2023-01-04T00:45:56.719Z,89
2023-01-04T00:47:03.213Z,89
2023-01-04T00:48:10.336Z,89
2023-01-04T00:49:17.439Z,90
2023-01-04T00:50:24.515Z,90
2023-01-04T00:51:31.605Z,90
2023-01-04T00:52:38.295Z,90
2023-01-04T00:53:45.305Z,90
2023-01-04T00:54:52.554Z,90
2023-01-04T00:55:59.554Z,90
2023-01-04T00:57:06.705Z,90
2023-01-04T00:58:13.195Z,90
2023-01-04T00:59:20.339Z,90
2023-01-04T01:00:27.527Z,90
2023-01-04T01:01:34.628Z,90
2023-01-04T01:02:41.845Z,90
2023-01-04T01:03:48.283Z,90
2023-01-04T01:04:55.339Z,90
2023-01-04T01:06:02.560Z,90
2023-01-04T01:07:09.581Z,90
2023-01-04T01:08:16.630Z,90
2023-01-04T01:09:23.351Z,90
2023-01-04T01:10:30.334Z,90
2023-01-04T01:12:44.552Z,90
2023-01-04T01:13:51.667Z,90
2023-01-04T01:15:00.620Z,90
2023-01-04T01:16:05.405Z,90
2023-01-04T01:17:12.506Z,90
2023-01-04T01:18:19.563Z,90
2023-01-04T01:19:26.657Z,90
2023-01-04T01:20:33.241Z,90
2023-01-04T01:21:40.373Z,90
2023-01-04T01:22:47.465Z,90
2023-01-04T01:23:54.553Z,90
2023-01-04T01:26:08.239Z,90
2023-01-04T01:27:15.356Z,90
2023-01-04T01:28:22.429Z,90
2023-01-04T01:29:29.655Z,90
2023-01-04T01:30:36.205Z,90
2023-01-04T01:31:43.359Z,90
2023-01-04T01:32:50.375Z,90
2023-01-04T01:33:57.543Z,90
2023-01-04T01:35:04.578Z,90
2023-01-04T01:36:11.162Z,90
2023-01-04T01:37:18.275Z,90
2023-01-04T01:38:25.383Z,90
2023-01-04T01:39:32.431Z,90
2023-01-04T01:40:39.638Z,90
2023-01-04T01:41:46.261Z,90
2023-01-04T01:42:53.296Z,90
2023-01-04T01:44:00.901Z,90
2023-01-04T01:45:07.505Z,90
2023-01-04T01:46:14.704Z,90
2023-01-04T01:47:21.758Z,90
2023-01-04T01:48:28.266Z,90
2023-01-04T01:49:35.374Z,90
2023-01-04T01:50:42.480Z,90
2023-01-04T01:51:49.612Z,90
2023-01-04T01:55:10.412Z,90
2023-01-04T01:56:17.547Z,90
2023-01-04T01:57:24.652Z,90
2023-01-04T01:58:31.221Z,90
2023-01-04T01:59:38.303Z,90
2023-01-04T02:00:45.384Z,90
2023-01-04T02:01:52.700Z,90
2023-01-04T02:02:59.775Z,90
2023-01-04T02:04:06.482Z,90
2023-01-04T02:05:13.295Z,90
2023-01-04T02:06:20.404Z,90
2023-01-04T02:07:27.588Z,90
2023-01-04T02:08:34.613Z,90
2023-01-04T02:09:41.740Z,90
2023-01-04T02:10:48.344Z,91
2023-01-04T02:11:55.474Z,90
2023-01-04T02:13:02.501Z,90
2023-01-04T02:14:09.639Z,91
2023-01-04T02:15:16.221Z,91
2023-01-04T02:16:23.322Z,91
2023-01-04T02:17:30.448Z,90
2023-01-04T02:18:37.558Z,90
2023-01-04T02:19:44.617Z,90
2023-01-04T02:20:51.253Z,90
2023-01-04T02:21:58.390Z,90
2023-01-04T02:23:05.417Z,90
2023-01-04T02:24:12.516Z,90
2023-01-04T02:25:19.644Z,91
2023-01-04T02:26:26.192Z,90
2023-01-04T02:27:33.311Z,91
2023-01-04T02:29:47.574Z,91
2023-01-04T02:30:54.738Z,90
2023-01-04T02:32:01.338Z,90
2023-01-04T02:33:08.383Z,91
2023-01-04T02:35:22.574Z,91
2023-01-04T02:36:29.624Z,91
2023-01-04T02:37:36.315Z,91
2023-01-04T02:38:43.358Z,91
2023-01-04T02:39:50.493Z,91
2023-01-04T02:40:57.567Z,91
2023-01-04T02:42:04.677Z,91
2023-01-04T02:43:15.858Z,91
2023-01-04T02:44:18.378Z,91
2023-01-04T02:45:25.487Z,91
2023-01-04T02:46:32.675Z,91
2023-01-04T02:47:39.762Z,91
2023-01-04T02:48:46.294Z,91
2023-01-04T02:49:55.627Z,91
2023-01-04T02:51:00.459Z,91
2023-01-04T02:52:07.585Z,91
2023-01-04T02:53:14.698Z,91
2023-01-04T02:54:21.259Z,91
2023-01-04T02:55:28.373Z,91
2023-01-04T02:56:35.870Z,91
2023-01-04T02:57:42.628Z,91
2023-01-04T02:58:49.726Z,91
2023-01-04T02:59:56.312Z,91
2023-01-04T03:01:03.364Z,91
2023-01-04T03:02:10.684Z,91
2023-01-04T03:03:17.809Z,91
2023-01-04T03:04:24.169Z,91
2023-01-04T03:05:31.336Z,91
2023-01-04T03:06:38.436Z,91
2023-01-04T03:07:45.552Z,91
2023-01-04T03:08:52.587Z,91
2023-01-04T03:09:59.219Z,91
2023-01-04T03:11:06.344Z,91
2023-01-04T03:12:13.444Z,91
2023-01-04T03:13:20.492Z,91
2023-01-04T03:14:31.881Z,91
2023-01-04T03:16:41.393Z,91
2023-01-04T03:17:48.460Z,91
2023-01-04T03:18:55.511Z,91
2023-01-04T03:20:02.612Z,91
2023-01-04T03:21:09.760Z,91
2023-01-04T03:23:23.557Z,91
2023-01-04T03:24:30.589Z,91
2023-01-04T03:25:37.639Z,91
2023-01-04T03:26:44.214Z,91
2023-01-04T03:27:51.382Z,91
2023-01-04T03:28:58.463Z,91
2023-01-04T03:30:05.514Z,91
2023-01-04T03:31:12.639Z,91
2023-01-04T03:32:19.267Z,91
2023-01-04T03:33:26.374Z,91
2023-01-04T03:34:33.463Z,91
2023-01-04T03:35:40.554Z,91
2023-01-04T03:36:47.690Z,91
2023-01-04T03:37:54.270Z,91
2023-01-04T03:39:01.373Z,91
2023-01-04T03:40:08.494Z,91
2023-01-04T03:41:15.536Z,91
2023-01-04T03:42:22.624Z,91
2023-01-04T03:43:29.204Z,91
2023-01-04T03:44:36.373Z,91
2023-01-04T03:45:43.427Z,91
2023-01-04T03:46:50.656Z,91
2023-01-04T03:47:57.698Z,91
2023-01-04T03:49:04.203Z,91
2023-01-04T03:50:11.364Z,91
2023-01-04T03:51:18.488Z,91
2023-01-04T03:52:25.632Z,91
2023-01-04T03:53:32.632Z,91
2023-01-04T03:54:39.239Z,91
2023-01-04T03:55:46.307Z,91
2023-01-04T03:58:00.622Z,91
2023-01-04T03:59:07.712Z,91
2023-01-04T04:00:14.214Z,91
2023-01-04T04:01:21.545Z,91
2023-01-04T04:02:28.736Z,91
2023-01-04T04:03:35.588Z,91
2023-01-04T04:04:42.674Z,91
2023-01-04T04:05:49.413Z,91
2023-01-04T04:06:56.330Z,91
2023-01-04T04:08:03.463Z,91
2023-01-04T04:09:10.641Z,91
2023-01-04T04:10:17.709Z,91
2023-01-04T04:11:24.302Z,91
2023-01-04T04:12:31.438Z,91
2023-01-04T04:13:38.487Z,91
2023-01-04T04:14:46.265Z,91
2023-01-04T04:15:52.661Z,91
2023-01-04T04:16:59.407Z,91
2023-01-04T04:18:06.404Z,91
2023-01-04T04:19:13.481Z,91
2023-01-04T04:20:20.634Z,91
2023-01-04T04:21:27.787Z,91
2023-01-04T04:22:34.323Z,91
2023-01-04T04:23:41.411Z,91
2023-01-04T04:24:48.503Z,91
2023-01-04T04:25:55.625Z,91
2023-01-04T04:27:02.731Z,91
2023-01-04T04:28:09.317Z,91
2023-01-04T04:29:16.551Z,91
2023-01-04T04:30:23.459Z,91
2023-01-04T04:31:30.663Z,91
2023-01-04T04:32:37.743Z,91
2023-01-04T04:33:44.263Z,91
2023-01-04T04:34:51.433Z,91
2023-01-04T04:35:58.557Z,91
2023-01-04T04:37:05.689Z,91
2023-01-04T04:39:19.327Z,91
2023-01-04T04:40:26.367Z,91
2023-01-04T04:41:33.500Z,91
2023-01-04T04:42:40.661Z,91
2023-01-04T04:43:47.730Z,91
2023-01-04T04:44:54.321Z,91
2023-01-04T04:46:01.606Z,91
2023-01-04T04:47:08.561Z,91
2023-01-04T04:48:15.617Z,91
2023-01-04T04:49:22.739Z,91
2023-01-04T04:50:29.323Z,91
2023-01-04T04:51:36.447Z,91
2023-01-04T04:52:43.552Z,91
2023-01-04T04:53:50.656Z,91
2023-01-04T04:56:04.286Z,91
2023-01-04T04:57:11.452Z,91
2023-01-04T04:58:18.535Z,91
2023-01-04T04:59:25.675Z,91
2023-01-04T05:00:32.704Z,91
2023-01-04T05:01:39.505Z,91
2023-01-04T05:02:46.653Z,91
2023-01-04T05:03:53.527Z,91
2023-01-04T05:05:01.891Z,91
2023-01-04T05:06:07.347Z,91
2023-01-04T05:07:14.362Z,91
2023-01-04T05:08:21.491Z,92
2023-01-04T05:09:28.587Z,92
2023-01-04T05:10:35.731Z,92
2023-01-04T05:11:42.249Z,92
2023-01-04T05:12:54.323Z,92
2023-01-04T05:13:56.455Z,92
2023-01-04T05:15:03.574Z,92
2023-01-04T05:16:10.832Z,92
2023-01-04T05:17:17.949Z,92
2023-01-04T05:18:24.312Z,92
2023-01-04T05:20:38.593Z,92
2023-01-04T05:21:45.634Z,92
2023-01-04T05:22:52.317Z,92
2023-01-04T05:23:59.359Z,92
2023-01-04T05:25:13.222Z,92
2023-01-04T05:26:13.567Z,92
2023-01-04T05:28:27.365Z,92
2023-01-04T05:29:34.355Z,92
2023-01-04T05:30:41.496Z,92
2023-01-04T05:31:48.643Z,92
2023-01-04T05:32:55.792Z,92
2023-01-04T05:34:02.274Z,92
2023-01-04T05:35:09.380Z,92
2023-01-04T05:36:16.469Z,92
2023-01-04T05:37:23.598Z,92
2023-01-04T05:38:30.716Z,92
2023-01-04T05:39:37.794Z,92
2023-01-04T05:40:44.344Z,92
2023-01-04T05:41:51.486Z,92
2023-01-04T05:42:58.647Z,92
2023-01-04T05:44:05.718Z,92
2023-01-04T05:45:12.294Z,92
2023-01-04T05:46:19.403Z,92
2023-01-04T05:47:26.546Z,92
2023-01-04T05:48:33.602Z,92
2023-01-04T05:49:40.739Z,92
2023-01-04T05:50:47.309Z,92
2023-01-04T05:51:54.357Z,92
2023-01-04T05:53:01.493Z,92
2023-01-04T05:54:08.722Z,93
2023-01-04T05:55:15.729Z,93
2023-01-04T05:56:22.311Z,93
2023-01-04T05:57:29.466Z,93
2023-01-04T05:59:43.607Z,93
2023-01-04T06:01:57.981Z,93
2023-01-04T06:03:04.553Z,93
2023-01-04T06:04:11.580Z,93
2023-01-04T06:05:18.658Z,93
2023-01-04T06:06:25.781Z,93
2023-01-04T06:07:32.374Z,93
2023-01-04T06:08:39.432Z,93
2023-01-04T06:09:46.536Z,93
2023-01-04T06:10:53.637Z,94
2023-01-04T06:12:00.714Z,94
2023-01-04T06:13:07.444Z,94
2023-01-04T06:14:14.384Z,96
2023-01-04T06:15:21.545Z,94
2023-01-04T06:16:28.717Z,98
2023-01-04T06:17:35.186Z,96
2023-01-04T06:18:42.333Z,96
2023-01-04T06:19:49.471Z,98
2023-01-04T06:20:56.559Z,96
2023-01-04T06:22:03.642Z,96
2023-01-04T06:23:10.273Z,94
2023-01-04T06:24:17.389Z,94
2023-01-04T06:25:24.442Z,94
2023-01-04T06:26:31.587Z,93
2023-01-04T06:27:38.651Z,94
2023-01-04T06:28:45.784Z,94
2023-01-04T06:29:52.501Z,94
2023-01-04T06:30:59.520Z,94
2023-01-04T06:32:06.633Z,93
2023-01-04T06:33:13.652Z,93
2023-01-04T06:34:24.059Z,93
2023-01-04T06:35:27.350Z,93
2023-01-04T06:36:34.420Z,93
2023-01-04T06:37:41.633Z,93
2023-01-04T06:38:48.684Z,93
2023-01-04T06:39:55.819Z,93
2023-01-04T06:41:02.494Z,93
2023-01-04T06:43:16.581Z,93
2023-01-04T06:44:23.677Z,93
2023-01-04T06:45:30.804Z,93
2023-01-04T06:46:37.515Z,93
2023-01-04T06:47:44.561Z,93
2023-01-04T06:48:51.612Z,93
2023-01-04T06:49:58.703Z,93
2023-01-04T06:51:05.777Z,93
2023-01-04T06:52:12.372Z,93
2023-01-04T06:53:19.519Z,93
2023-01-04T06:54:26.573Z,93
2023-01-04T06:56:40.330Z,93
2023-01-04T06:57:47.467Z,93
2023-01-04T06:58:54.497Z,93
2023-01-04T07:00:01.727Z,93
2023-01-04T07:01:08.778Z,93
2023-01-04T07:03:22.560Z,93
2023-01-04T07:04:31.214Z,93
2023-01-04T07:05:36.628Z,94
2023-01-04T07:06:43.705Z,94
2023-01-04T07:07:50.291Z,96
2023-01-04T07:08:57.401Z,96
2023-01-04T07:10:09.473Z,96
2023-01-04T07:11:11.639Z,94
2023-01-04T07:12:18.823Z,96
2023-01-04T07:13:25.286Z,96
2023-01-04T07:14:32.385Z,98
2023-01-04T07:15:40.700Z,98
2023-01-04T07:16:46.775Z,98
2023-01-04T07:17:53.772Z,98
2023-01-04T07:19:00.374Z,98
2023-01-04T07:20:07.470Z,98
2023-01-04T07:21:14.504Z,98
2023-01-04T07:22:21.709Z,98
2023-01-04T07:23:28.243Z,96
2023-01-04T07:23:28.691Z,96
2023-01-04T07:24:35.330Z,96
2023-01-04T07:25:42.428Z,96
2023-01-04T07:26:49.554Z,98
2023-01-04T07:27:56.707Z,98
2023-01-04T07:29:03.748Z,98
2023-01-04T07:30:10.316Z,98
2023-01-04T07:31:17.537Z,98
2023-01-04T07:32:24.520Z,98
2023-01-04T07:33:31.664Z,97
2023-01-04T07:34:38.786Z,98
2023-01-04T07:35:45.343Z,98
2023-01-04T07:36:52.433Z,98
2023-01-04T07:37:59.603Z,98
2023-01-04T07:39:06.659Z,98
2023-01-04T07:40:13.843Z,98
2023-01-04T07:41:20.343Z,98
2023-01-04T07:42:27.523Z,98
2023-01-04T07:43:34.546Z,98
2023-01-04T07:44:41.671Z,98
2023-01-04T07:45:48.786Z,98
2023-01-04T07:46:55.407Z,98
2023-01-04T07:48:02.449Z,98
2023-01-04T07:49:16.363Z,98
2023-01-04T07:50:16.711Z,98
2023-01-04T07:51:23.776Z,98
2023-01-04T07:52:30.432Z,98
2023-01-04T07:53:37.493Z,98
2023-01-04T07:54:44.533Z,98
2023-01-04T07:55:51.682Z,98
2023-01-04T07:56:58.737Z,98
2023-01-04T07:58:05.426Z,98
2023-01-04T07:59:12.473Z,98
2023-01-04T08:00:19.604Z,98
2023-01-04T08:01:26.834Z,98
2023-01-04T08:02:34.067Z,98
2023-01-04T08:03:40.415Z,98
2023-01-04T08:04:47.608Z,98
2023-01-04T08:07:01.734Z,98
2023-01-04T08:08:08.850Z,98
2023-01-04T08:09:15.405Z,98
2023-01-04T08:10:22.447Z,98
2023-01-04T08:11:29.614Z,98
2023-01-04T08:12:36.730Z,98
2023-01-04T08:13:43.861Z,98
2023-01-04T08:14:50.413Z,98
2023-01-04T08:15:57.567Z,98
2023-01-04T08:17:04.602Z,98
2023-01-04T08:18:11.793Z,98
2023-01-04T08:19:18.894Z,98
2023-01-04T08:20:25.350Z,98
2023-01-04T08:21:32.474Z,98
2023-01-04T08:22:39.639Z,98
2023-01-04T08:24:53.783Z,98
2023-01-04T08:26:00.652Z,98
2023-01-04T08:27:07.560Z,98
2023-01-04T08:28:14.723Z,98
2023-01-04T08:29:21.716Z,98
2023-01-04T08:30:28.313Z,98
2023-01-04T08:31:35.477Z,98
2023-01-04T08:32:42.589Z,98
2023-01-04T08:33:49.658Z,98
2023-01-04T08:34:56.734Z,99
2023-01-04T08:36:03.813Z,99
2023-01-04T08:37:10.466Z,99
2023-01-04T08:38:57.554Z,99
2023-01-04T08:39:24.627Z,99
2023-01-04T08:40:59.698Z,99
2023-01-04T08:41:57.480Z,99
2023-01-04T08:42:45.517Z,99
2023-01-04T08:43:52.521Z,99
2023-01-04T08:45:02.239Z,99
2023-01-04T08:46:06.873Z,99
2023-01-04T08:47:13.812Z,99
2023-01-04T08:48:24.522Z,98
2023-01-04T08:49:27.592Z,98
2023-01-04T08:50:34.668Z,99
2023-01-04T08:51:41.789Z,99
2023-01-04T08:52:48.345Z,99
2023-01-04T08:53:55.488Z,99
2023-01-04T08:55:06.836Z,99
2023-01-04T08:56:09.636Z,99
2023-01-04T08:57:16.850Z,99
2023-01-04T08:58:23.347Z,99
2023-01-04T08:59:30.432Z,99
2023-01-04T09:00:37.606Z,99
2023-01-04T09:01:44.694Z,99
2023-01-04T09:02:52.122Z,99
2023-01-04T09:03:58.584Z,99
2023-01-04T09:05:05.592Z,99
2023-01-04T09:06:12.535Z,99
2023-01-04T09:07:19.822Z,99
2023-01-04T09:08:26.766Z,99
2023-01-04T09:10:40.545Z,99
2023-01-04T09:11:47.701Z,99
2023-01-04T09:12:54.773Z,99
2023-01-04T09:14:08.065Z,99
2023-01-04T09:15:08.424Z,99
2023-01-04T09:16:15.997Z,99
2023-01-04T09:17:22.532Z,99
2023-01-04T09:18:30.949Z,99
2023-01-04T09:19:36.879Z,99
2023-01-04T09:20:43.350Z,99
2023-01-04T09:21:50.600Z,99
2023-01-04T09:22:57.692Z,99
2023-01-04T09:24:04.665Z,99
2023-01-04T09:25:11.958Z,99
2023-01-04T09:26:18.461Z,99
2023-01-04T09:27:25.604Z,99
2023-01-04T09:28:32.778Z,99
2023-01-04T09:29:39.756Z,99
2023-01-04T09:30:47.828Z,99
2023-01-04T09:31:53.420Z,99
2023-01-04T09:33:00.820Z,99
2023-01-04T09:34:16.897Z,99
2023-01-04T09:35:14.772Z,99
2023-01-04T09:36:21.793Z,99
2023-01-04T09:37:28.451Z,99
2023-01-04T09:38:35.595Z,99
2023-01-04T09:39:42.566Z,99
2023-01-04T09:40:49.729Z,99
2023-01-04T09:41:56.807Z,99
2023-01-04T09:43:20.231Z,99
2023-01-04T09:44:10.605Z,99
2023-01-04T09:45:25.530Z,99
2023-01-04T09:46:24.926Z,99
2023-01-04T09:47:32.899Z,99
2023-01-04T09:48:38.523Z,99
2023-01-04T09:49:48.076Z,99
2023-01-04T09:50:52.669Z,99
2023-01-04T09:53:06.791Z,99
2023-01-04T09:54:13.440Z,99
2023-01-04T09:55:39.066Z,99
2023-01-04T09:56:27.680Z,99
2023-01-04T09:57:34.820Z,99
2023-01-04T09:58:42.019Z,99
2023-01-04T09:59:48.416Z,99
2023-01-04T10:00:55.748Z,99
2023-01-04T10:02:03.003Z,99
2023-01-04T10:03:09.921Z,99
2023-01-04T10:04:16.417Z,99
2023-01-04T10:05:23.382Z,99
2023-01-04T10:06:30.526Z,99
2023-01-04T10:07:37.748Z,99
2023-01-04T10:08:44.792Z,99
2023-01-04T10:09:52.028Z,99
2023-01-04T10:10:58.626Z,99
2023-01-04T10:12:05.610Z,99
2023-01-04T10:14:19.849Z,99
2023-01-04T10:15:26.471Z,99
2023-01-04T10:17:01.778Z,99
2023-01-04T10:18:57.601Z,99
2023-01-04T10:21:30.063Z,99
2023-01-04T10:22:08.571Z,99
2023-01-04T10:23:15.534Z,99
2023-01-04T10:24:22.712Z,99
2023-01-04T10:25:29.932Z,99
2023-01-04T10:26:36.409Z,99
2023-01-04T10:27:43.461Z,99
2023-01-04T10:28:50.612Z,99
2023-01-04T10:29:57.655Z,99
2023-01-04T10:31:39.668Z,99
2023-01-04T10:32:11.399Z,99
2023-01-04T10:33:18.543Z,99
2023-01-04T10:34:25.598Z,99
2023-01-04T10:35:32.682Z,99
2023-01-04T10:36:39.843Z,99
2023-01-04T10:37:46.412Z,99
2023-01-04T10:38:53.484Z,99
2023-01-04T10:40:00.627Z,99
2023-01-04T10:41:07.721Z,99
2023-01-04T10:42:14.895Z,99
2023-01-04T10:43:21.387Z,99
2023-01-04T10:44:28.506Z,99
2023-01-04T10:45:35.590Z,99
2023-01-04T10:46:42.771Z,99
2023-01-04T10:47:49.779Z,99
2023-01-04T10:48:56.433Z,99
2023-01-04T10:50:03.503Z,99
2023-01-04T10:51:10.923Z,99
2023-01-04T10:52:17.721Z,99
2023-01-04T10:53:24.858Z,99
2023-01-04T10:54:31.431Z,99
2023-01-04T10:55:38.546Z,99
2023-01-04T10:56:45.614Z,99
2023-01-04T10:57:52.792Z,99
2023-01-04T11:00:06.586Z,99
2023-01-04T11:01:13.676Z,99
2023-01-04T11:02:20.812Z,99
2023-01-04T11:03:27.761Z,99
2023-01-04T11:04:34.851Z,99
2023-01-04T11:05:41.456Z,99
2023-01-04T11:06:48.515Z,99
2023-01-04T11:07:55.712Z,99
2023-01-04T11:09:02.765Z,99
2023-01-04T11:10:09.816Z,99
2023-01-04T11:11:16.444Z,99
2023-01-04T11:12:23.529Z,99
2023-01-04T11:13:30.705Z,99
2023-01-04T11:14:37.830Z,99
2023-01-04T11:15:44.848Z,99
2023-01-04T11:17:58.628Z,99
2023-01-04T11:19:05.645Z,99
2023-01-04T11:21:19.915Z,100
2023-01-04T11:22:26.583Z,100
2023-01-04T11:23:33.566Z,100
2023-01-04T11:24:54.178Z,100
2023-01-04T11:25:51.978Z,100
2023-01-04T11:26:54.811Z,100
2023-01-04T11:28:01.531Z,100
2023-01-04T11:29:08.694Z,100
2023-01-04T11:30:15.721Z,100
2023-01-04T11:31:22.813Z,100
2023-01-04T11:32:29.949Z,100
2023-01-04T11:33:36.462Z,100
2023-01-04T11:34:43.536Z,100
2023-01-04T11:35:50.703Z,100
2023-01-04T11:36:57.754Z,100
2023-01-04T11:38:04.433Z,100
2023-01-04T11:39:11.473Z,100
2023-01-04T11:40:18.650Z,100
2023-01-04T11:41:25.661Z,100
2023-01-04T11:42:32.771Z,100
2023-01-04T11:43:39.362Z,100
2023-01-04T11:44:46.677Z,100
2023-01-04T11:45:53.717Z,100
2023-01-04T11:47:00.733Z,100
2023-01-04T11:48:14.343Z,100
2023-01-04T11:49:14.334Z,100
2023-01-04T11:50:21.454Z,100
2023-01-04T11:51:28.585Z,100
2023-01-04T11:52:35.689Z,100
2023-01-04T11:53:42.802Z,100
2023-01-04T11:54:49.392Z,100
2023-01-04T11:55:56.520Z,100
2023-01-04T11:57:10.749Z,100
2023-01-04T11:58:10.780Z,100
2023-01-04T11:59:24.531Z,100
2023-01-04T12:00:24.344Z,100
2023-01-04T12:01:31.637Z,100
2023-01-04T12:03:01.683Z,100
2023-01-04T12:03:45.682Z,100
2023-01-04T12:04:52.754Z,100
2023-01-04T12:05:59.425Z,100
2023-01-04T12:07:06.567Z,100
2023-01-04T12:08:13.662Z,100
2023-01-04T12:09:20.740Z,100
2023-01-04T12:10:28.035Z,100
2023-01-04T12:11:34.390Z,100
2023-01-04T12:12:41.601Z,100
2023-01-04T12:13:48.674Z,100
2023-01-04T12:14:55.742Z,100
2023-01-04T12:16:02.822Z,100
2023-01-04T12:17:09.414Z,100
2023-01-04T12:18:16.572Z,100
2023-01-04T12:19:23.570Z,100
2023-01-04T12:21:37.810Z,100
2023-01-04T12:22:44.474Z,100
2023-01-04T12:23:51.548Z,100
2023-01-04T12:25:00.786Z,100
2023-01-04T12:26:05.711Z,100
2023-01-04T12:27:12.816Z,100
2023-01-04T12:28:22.908Z,100
2023-01-04T12:29:26.517Z,100
2023-01-04T12:30:33.584Z,100
2023-01-04T12:31:40.767Z,100
2023-01-04T12:32:47.902Z,100
2023-01-04T12:33:54.435Z,100
2023-01-04T12:35:01.583Z,100
2023-01-04T12:36:08.707Z,100
2023-01-04T12:37:15.727Z,100
2023-01-04T12:38:23.014Z,100
2023-01-04T12:39:29.537Z,100
2023-01-04T12:40:36.609Z,100
2023-01-04T12:41:43.630Z,100
2023-01-04T12:42:50.764Z,100
2023-01-04T12:43:57.861Z,100
2023-01-04T12:45:04.457Z,100
2023-01-04T12:46:11.625Z,100
2023-01-04T12:47:18.683Z,100
2023-01-04T12:49:32.889Z,100
2023-01-04T12:50:43.576Z,100
2023-01-04T12:51:58.263Z,100
2023-01-04T12:53:28.931Z,100
2023-01-04T12:54:00.791Z,100
2023-01-04T12:55:07.389Z,100
2023-01-04T12:56:14.447Z,100
2023-01-04T12:57:21.598Z,100
2023-01-04T12:58:49.806Z,100
2023-01-04T12:59:35.818Z,100
2023-01-04T13:00:42.340Z,100
2023-01-04T13:01:49.662Z,100
2023-01-04T13:02:56.768Z,100
2023-01-04T13:04:05.982Z,100
2023-01-04T13:05:54.326Z,100
2023-01-04T13:06:17.389Z,100
2023-01-04T13:07:24.423Z,100
2023-01-04T13:08:31.674Z,100
2023-01-04T13:09:42.140Z,100
2023-01-04T13:10:45.797Z,100
2023-01-04T13:11:52.744Z,100
2023-01-04T13:12:59.519Z,100
2023-01-04T13:14:06.598Z,100
2023-01-04T13:15:17.697Z,100
2023-01-04T13:16:20.807Z,100
2023-01-04T13:17:27.387Z,100
2023-01-04T13:18:34.491Z,100
2023-01-04T13:19:41.579Z,100
2023-01-04T13:20:48.728Z,100
2023-01-04T13:21:55.821Z,100
2023-01-04T13:23:02.466Z,100
2023-01-04T13:25:16.588Z,100
2023-01-04T13:26:23.726Z,99
2023-01-04T13:27:30.799Z,99
2023-01-04T13:28:37.464Z,99
2023-01-04T13:29:44.497Z,99
2023-01-04T13:30:51.620Z,99
2023-01-04T13:31:58.742Z,99
2023-01-04T13:33:25.675Z,99
2023-01-04T13:34:12.869Z,99
2023-01-04T13:35:19.536Z,99
2023-01-04T13:36:26.648Z,99
2023-01-04T13:37:33.744Z,99
2023-01-04T13:38:40.980Z,99
2023-01-04T13:39:47.434Z,100
2023-01-04T13:40:54.484Z,100
2023-01-04T13:42:01.675Z,100
2023-01-04T13:43:08.776Z,99
2023-01-04T13:44:15.881Z,99
2023-01-04T13:45:22.404Z,99
2023-01-04T13:46:29.515Z,99
2023-01-04T13:47:36.644Z,99
2023-01-04T13:48:43.788Z,99
2023-01-04T13:49:50.868Z,99
2023-01-04T13:50:57.457Z,99
2023-01-04T13:52:34.911Z,99
2023-01-04T13:53:11.581Z,99
2023-01-04T13:54:18.775Z,99
2023-01-04T13:55:25.809Z,99
2023-01-04T13:56:32.456Z,99
2023-01-04T13:57:39.561Z,99
2023-01-04T13:58:46.676Z,99
2023-01-04T13:59:53.708Z,99
2023-01-04T14:01:00.873Z,99
2023-01-04T14:02:07.631Z,99
2023-01-04T14:03:14.595Z,99
2023-01-04T14:04:21.671Z,99
2023-01-04T14:05:28.750Z,99
2023-01-04T14:06:35.887Z,99
2023-01-04T14:07:42.523Z,99
2023-01-04T14:08:49.573Z,99
2023-01-04T14:09:56.654Z,99
2023-01-04T14:11:03.765Z,99
2023-01-04T14:12:10.953Z,99
2023-01-04T14:13:17.470Z,99
2023-01-04T14:14:24.518Z,98
2023-01-04T14:15:31.832Z,98
2023-01-04T14:17:48.666Z,97
2023-01-04T14:18:52.466Z,96
2023-01-04T14:19:59.618Z,96
2023-01-04T14:21:06.658Z,96
2023-01-04T14:22:13.794Z,95
2023-01-04T14:23:21.355Z,95
2023-01-04T14:24:58.204Z,94
2023-01-04T14:25:34.532Z,94
2023-01-04T14:26:41.703Z,93
2023-01-04T14:28:55.974Z,93
2023-01-04T14:30:02.455Z,93
2023-01-04T14:31:09.666Z,93
2023-01-04T14:32:16.697Z,93
2023-01-04T14:33:23.867Z,93
2023-01-04T14:34:30.941Z,93
2023-01-04T14:35:41.835Z,93
2023-01-04T14:36:44.537Z,93
2023-01-04T14:37:51.768Z,93
2023-01-04T14:38:58.832Z,93
2023-01-04T14:40:05.375Z,93
2023-01-04T14:41:12.461Z,93
2023-01-04T14:42:22.744Z,93
2023-01-04T14:43:26.840Z,93
2023-01-04T14:44:33.767Z,93
2023-01-04T14:45:40.945Z,93
2023-01-04T14:46:47.746Z,93
2023-01-04T14:47:54.580Z,93
2023-01-04T14:49:01.688Z,93
2023-01-04T14:50:08.826Z,93
2023-01-04T14:51:15.412Z,93
2023-01-04T14:52:22.534Z,93
2023-01-04T14:53:29.711Z,93
2023-01-04T14:54:36.782Z,93
2023-01-04T14:55:43.797Z,93
2023-01-04T14:56:50.437Z,93
2023-01-04T14:57:57.505Z,93
2023-01-04T14:59:04.570Z,94
2023-01-04T15:00:16.923Z,93
2023-01-04T15:01:18.967Z,93
2023-01-04T15:02:25.588Z,93
2023-01-04T15:03:32.718Z,93
2023-01-04T15:04:39.607Z,93
2023-01-04T15:05:46.772Z,93
2023-01-04T15:06:53.831Z,93
2023-01-04T15:08:00.945Z,93
2023-01-04T15:09:07.598Z,93
2023-01-04T15:10:14.590Z,93
2023-01-04T15:11:21.725Z,93
2023-01-04T15:12:28.864Z,93
2023-01-04T15:13:39.665Z,93
2023-01-04T15:14:42.517Z,93
2023-01-04T15:15:49.776Z,93
2023-01-04T15:16:56.778Z,93
2023-01-04T15:18:03.895Z,93
2023-01-04T15:19:10.467Z,92
2023-01-04T15:20:17.533Z,92
2023-01-04T15:21:24.681Z,92
2023-01-04T15:22:31.964Z,92
2023-01-04T15:23:38.979Z,92
2023-01-04T15:24:45.437Z,92
2023-01-04T15:25:52.616Z,92
2023-01-04T15:26:59.722Z,92
2023-01-04T15:28:06.722Z,92
2023-01-04T15:29:13.882Z,92
2023-01-04T15:30:20.446Z,92
2023-01-04T15:32:34.685Z,92
2023-01-04T15:33:41.812Z,91
2023-01-04T15:34:48.857Z,91
2023-01-04T15:35:55.452Z,91
2023-01-04T15:37:02.514Z,91
2023-01-04T15:38:15.991Z,91
2023-01-04T15:39:16.800Z,91
2023-01-04T15:40:23.858Z,91
2023-01-04T15:41:30.494Z,91
2023-01-04T15:42:37.559Z,91
2023-01-04T15:43:44.733Z,91
2023-01-04T15:45:58.867Z,91
2023-01-04T15:47:05.536Z,91
2023-01-04T15:48:12.645Z,91
2023-01-04T15:49:19.722Z,91
2023-01-04T15:50:26.895Z,91
2023-01-04T15:51:33.390Z,91
2023-01-04T15:52:40.496Z,91
2023-01-04T15:53:47.547Z,91
2023-01-04T15:54:54.672Z,90
2023-01-04T15:56:01.812Z,91
2023-01-04T15:57:08.887Z,90
2023-01-04T15:58:15.523Z,91
2023-01-04T15:59:22.540Z,91
2023-01-04T16:00:29.722Z,91
2023-01-04T16:01:37.016Z,91
2023-01-04T16:02:43.499Z,91
2023-01-04T16:03:53.877Z,91
2023-01-04T16:04:57.617Z,91
2023-01-04T16:06:04.725Z,91
2023-01-04T16:07:11.842Z,91
2023-01-04T16:08:18.481Z,91
2023-01-04T16:09:25.571Z,91
2023-01-04T16:10:32.636Z,91
2023-01-04T16:11:39.706Z,91
2023-01-04T16:12:51.436Z,90
2023-01-04T16:13:53.423Z,91
2023-01-04T16:15:00.525Z,91
2023-01-04T16:16:07.699Z,90
2023-01-04T16:17:14.719Z,90
2023-01-04T16:18:21.862Z,90
2023-01-04T16:19:28.415Z,90
2023-01-04T16:20:35.513Z,90
2023-01-04T16:21:42.651Z,90
2023-01-04T16:22:49.709Z,90
2023-01-04T16:24:03.978Z,90
2023-01-04T16:25:11.863Z,90
2023-01-04T16:26:10.549Z,90
2023-01-04T16:27:17.792Z,90
2023-01-04T16:28:24.798Z,90
2023-01-04T16:29:31.831Z,90
2023-01-04T16:30:38.457Z,91
2023-01-04T16:31:45.598Z,90